Time;durP1;ratioP1;P1;durP2;ratioP2;P2;SDS_P1;SDS_P2;PMS_P1;PMS_P2;Temp;Humidity;BMP_temperature;BMP_pressure;BME280_temperature;BME280_humidity;BME280_pressure;Samples;Min_cycle;Max_cycle;Signal;HPM_P1;HPM_P2
2021/10/16 00:00:18;;;;;;;17.40;11.03;;;;;;;5.56;65.85;99918.13;1722505;81;20950;-57
2021/10/16 00:02:45;;;;;;;18.07;11.43;;;;;;;5.52;65.87;99928.03;1669914;83;20939;-57
2021/10/16 00:05:11;;;;;;;14.70;10.07;;;;;;;5.48;65.95;99923.66;1722044;81;20994;-57
2021/10/16 00:07:39;;;;;;;15.73;11.50;;;;;;;5.43;66.07;99920.25;1723627;82;20966;-57
2021/10/16 00:10:06;;;;;;;18.60;11.47;;;;;;;5.37;66.16;99922.16;1723009;82;21119;-57
2021/10/16 00:12:32;;;;;;;18.67;12.13;;;;;;;5.32;66.25;99911.62;1722722;82;21125;-57
2021/10/16 00:14:59;;;;;;;15.53;10.90;;;;;;;5.27;66.34;99906.86;1719117;82;21039;-58
2021/10/16 00:17:27;;;;;;;17.17;12.67;;;;;;;5.19;66.34;99907.02;1719054;82;21106;-57
2021/10/16 00:19:53;;;;;;;17.87;12.77;;;;;;;5.12;66.48;99905.41;1722302;82;21117;-58
2021/10/16 00:22:20;;;;;;;15.10;10.63;;;;;;;5.03;66.67;99903.41;1665184;83;23337;-57
2021/10/16 00:24:48;;;;;;;12.27;9.57;;;;;;;4.96;66.89;99897.35;1722056;82;21152;-57
2021/10/16 00:27:15;;;;;;;13.20;8.77;;;;;;;4.93;67.07;99900.11;1721684;82;21050;-57
2021/10/16 00:29:43;;;;;;;21.13;9.33;;;;;;;4.91;67.14;99891.27;1724536;82;20948;-57
2021/10/16 00:32:10;;;;;;;12.07;8.50;;;;;;;4.90;67.25;99893.50;1722473;82;20954;-57
2021/10/16 00:34:36;;;;;;;16.83;10.60;;;;;;;4.88;67.38;99892.66;1717703;82;21075;-57
2021/10/16 00:37:02;;;;;;;19.10;11.80;;;;;;;4.87;67.49;99885.56;1722132;82;21110;-57
2021/10/16 00:39:29;;;;;;;18.70;10.87;;;;;;;4.85;67.63;99884.70;1669483;84;21106;-57
2021/10/16 00:41:56;;;;;;;14.77;11.40;;;;;;;4.84;67.64;99886.98;1718974;82;22302;-57
2021/10/16 00:44:23;;;;;;;18.67;12.10;;;;;;;4.83;67.66;99887.89;1724483;82;21639;-57
2021/10/16 00:46:52;;;;;;;18.00;11.57;;;;;;;4.81;67.71;99882.59;1721777;82;22237;-57
2021/10/16 00:49:19;;;;;;;19.63;11.73;;;;;;;4.79;67.74;99890.19;1722016;82;21031;-57
2021/10/16 00:51:46;;;;;;;20.27;11.90;;;;;;;4.75;67.79;99879.19;1717176;82;21050;-58
2021/10/16 00:54:12;;;;;;;16.23;11.57;;;;;;;4.71;67.78;99870.37;1716057;82;21102;-57
2021/10/16 00:56:41;;;;;;;17.57;10.83;;;;;;;4.66;67.91;99870.06;1719292;82;21063;-57
2021/10/16 00:59:08;;;;;;;19.03;11.33;;;;;;;4.60;67.96;99879.50;1718723;82;21222;-58
2021/10/16 01:01:35;;;;;;;22.17;13.23;;;;;;;4.53;68.06;99876.98;1715468;81;21113;-57
2021/10/16 01:04:04;;;;;;;16.00;10.77;;;;;;;4.48;68.25;99877.55;1719496;81;21542;-57
2021/10/16 01:06:32;;;;;;;16.07;10.80;;;;;;;4.44;68.38;99874.97;1719201;81;21071;-57
2021/10/16 01:08:58;;;;;;;17.70;10.33;;;;;;;4.43;68.52;99875.42;1715540;81;21717;-57
2021/10/16 01:11:37;;;;;;;18.37;10.93;;;;;;;4.43;68.67;99878.09;1716126;81;21209;-57
2021/10/16 01:14:07;;;;;;;18.73;11.70;;;;;;;4.44;68.83;99873.63;1721238;81;21539;-57
2021/10/16 01:16:35;;;;;;;18.47;11.87;;;;;;;4.47;69.01;99873.58;1690909;82;21564;-56
2021/10/16 01:19:02;;;;;;;21.37;12.20;;;;;;;4.50;69.21;99866.41;1718534;81;21910;-56
2021/10/16 01:21:29;;;;;;;24.10;12.47;;;;;;;4.54;69.42;99868.08;1716224;81;21078;-56
2021/10/16 01:23:58;;;;;;;14.90;10.60;;;;;;;4.61;69.65;99870.15;1721894;81;22631;-56
2021/10/16 01:26:28;;;;;;;18.53;13.00;;;;;;;4.66;69.85;99875.39;1719380;81;20939;-57
2021/10/16 01:28:57;;;;;;;18.27;13.10;;;;;;;4.71;70.00;99871.70;1648039;85;21320;-55
2021/10/16 01:31:24;;;;;;;19.37;13.03;;;;;;;4.76;70.21;99860.95;1716907;81;21738;-56
2021/10/16 01:33:51;;;;;;;19.70;13.33;;;;;;;4.81;70.46;99863.92;1716427;81;21489;-56
2021/10/16 01:36:17;;;;;;;30.47;14.20;;;;;;;4.85;70.64;99858.91;1717947;81;21580;-57
2021/10/16 01:38:44;;;;;;;22.60;13.77;;;;;;;4.92;70.83;99859.67;1719271;81;21634;-56
2021/10/16 01:41:11;;;;;;;15.97;12.57;;;;;;;4.98;70.98;99854.19;1718337;81;21442;-56
2021/10/16 01:43:38;;;;;;;18.33;12.50;;;;;;;5.05;71.12;99851.78;1647821;84;20951;-56
2021/10/16 01:46:05;;;;;;;16.17;12.17;;;;;;;5.13;71.16;99859.59;1719273;81;21724;-56
2021/10/16 01:48:34;;;;;;;16.93;10.97;;;;;;;5.19;71.16;99852.31;1717471;81;21525;-56
2021/10/16 01:51:01;;;;;;;16.90;10.77;;;;;;;5.26;71.17;99852.61;1719216;81;20932;-56
2021/10/16 01:53:29;;;;;;;16.97;12.43;;;;;;;5.36;71.21;99851.04;1720961;81;21327;-56
2021/10/16 01:55:58;;;;;;;22.13;13.63;;;;;;;5.42;71.25;99842.41;1715980;81;21166;-56
2021/10/16 01:58:26;;;;;;;16.23;12.70;;;;;;;5.48;71.23;99839.56;1719349;81;21442;-55
2021/10/16 02:01:06;;;;;;;20.67;12.83;;;;;;;5.55;71.29;99832.27;1719580;82;21384;-56
2021/10/16 02:03:32;;;;;;;22.13;14.23;;;;;;;5.61;71.29;99841.47;1718868;82;21459;-56
2021/10/16 02:06:00;;;;;;;18.70;14.47;;;;;;;5.66;71.23;99836.88;1720448;82;21053;-56
2021/10/16 02:08:32;;;;;;;18.97;14.33;;;;;;;5.70;71.16;99828.72;1718302;82;22522;-55
2021/10/16 02:10:58;;;;;;;19.73;14.23;;;;;;;5.74;71.19;99830.86;1666791;83;21530;-55
2021/10/16 02:13:26;;;;;;;21.77;15.17;;;;;;;5.79;71.11;99832.93;1717843;82;21133;-55
2021/10/16 02:15:56;;;;;;;18.40;13.47;;;;;;;5.83;71.05;99829.73;1725998;81;20974;-55
2021/10/16 02:18:24;;;;;;;17.27;11.93;;;;;;;5.89;71.03;99834.47;1721388;82;21093;-56
2021/10/16 02:20:51;;;;;;;19.90;12.50;;;;;;;5.95;70.95;99827.64;1717406;81;21097;-56
2021/10/16 02:23:18;;;;;;;17.67;12.83;;;;;;;6.02;70.93;99835.89;1720105;82;21124;-55
2021/10/16 02:25:45;;;;;;;17.83;12.87;;;;;;;6.09;70.84;99823.23;1721595;82;21130;-56
2021/10/16 02:28:11;;;;;;;20.17;13.57;;;;;;;6.16;70.80;99822.58;1668508;83;21046;-56
2021/10/16 02:30:39;;;;;;;19.73;14.07;;;;;;;6.21;70.76;99820.17;1704310;82;20886;-54
2021/10/16 02:33:06;;;;;;;24.93;15.87;;;;;;;6.28;70.74;99824.91;1728191;82;20919;-56
2021/10/16 02:35:33;;;;;;;22.20;14.87;;;;;;;6.33;70.62;99821.16;1709420;82;20939;-56
2021/10/16 02:37:59;;;;;;;20.43;14.23;;;;;;;6.38;70.51;99818.37;1723225;82;21437;-55
2021/10/16 02:40:25;;;;;;;21.47;14.73;;;;;;;6.43;70.37;99819.09;1724681;82;21092;-56
2021/10/16 02:42:52;;;;;;;24.67;16.23;;;;;;;6.45;70.20;99822.14;1705063;82;20920;-56
2021/10/16 02:45:19;;;;;;;24.37;15.73;;;;;;;6.48;70.15;99825.16;1669898;83;20975;-55
2021/10/16 02:47:46;;;;;;;25.97;16.63;;;;;;;6.51;70.02;99822.86;1724655;81;21402;-55
2021/10/16 02:50:13;;;;;;;22.50;16.40;;;;;;;6.52;69.90;99820.16;1688102;83;22252;-56
2021/10/16 02:52:39;;;;;;;22.40;14.60;;;;;;;6.55;69.83;99813.84;1685963;83;20940;-56
2021/10/16 02:55:07;;;;;;;19.57;13.60;;;;;;;6.57;69.77;99810.63;1688528;83;20983;-55
2021/10/16 02:57:35;;;;;;;23.10;17.07;;;;;;;6.61;69.79;99813.64;1724072;82;21433;-57
2021/10/16 03:00:02;;;;;;;25.50;16.77;;;;;;;6.63;69.75;99805.99;1726388;82;21590;-55
2021/10/16 03:02:28;;;;;;;21.13;16.87;;;;;;;6.67;69.69;99803.62;1727118;81;21100;-55
2021/10/16 03:04:55;;;;;;;25.27;16.60;;;;;;;6.72;69.56;99808.84;1729323;81;20962;-56
2021/10/16 03:07:21;;;;;;;21.93;16.80;;;;;;;6.76;69.48;99807.34;1726446;81;21320;-55
2021/10/16 03:09:47;;;;;;;23.60;16.03;;;;;;;6.81;69.43;99808.06;1704000;81;21066;-56
2021/10/16 03:12:16;;;;;;;22.20;14.93;;;;;;;6.87;69.33;99807.00;1728193;81;21638;-56
2021/10/16 03:14:44;;;;;;;27.20;16.03;;;;;;;6.90;69.18;99804.67;1675814;83;21162;-55
2021/10/16 03:17:10;;;;;;;23.10;16.20;;;;;;;6.93;69.09;99801.45;1726378;81;21144;-56
2021/10/16 03:19:37;;;;;;;27.33;16.63;;;;;;;6.95;68.90;99802.73;1730268;81;21010;-56
2021/10/16 03:22:05;;;;;;;19.77;14.40;;;;;;;6.97;68.79;99800.44;1732287;81;20919;-55
2021/10/16 03:24:36;;;;;;;20.13;14.67;;;;;;;6.98;68.72;99803.95;1730827;81;20954;-55
2021/10/16 03:27:03;;;;;;;23.03;15.83;;;;;;;6.97;68.65;99803.11;1680141;83;21157;-55
2021/10/16 03:29:29;;;;;;;24.53;16.10;;;;;;;6.98;68.56;99809.30;1727196;81;21048;-55
2021/10/16 03:31:56;;;;;;;19.83;14.80;;;;;;;6.98;68.55;99802.16;1725499;81;21749;-56
2021/10/16 03:34:23;;;;;;;22.67;14.37;;;;;;;6.99;68.50;99801.23;1728552;81;21429;-55
2021/10/16 03:36:51;;;;;;;22.20;14.23;;;;;;;7.02;68.49;99798.93;1726224;81;22214;-55
2021/10/16 03:39:18;;;;;;;18.33;13.43;;;;;;;7.04;68.44;99799.30;1678281;83;21223;-56
2021/10/16 03:41:45;;;;;;;22.17;14.40;;;;;;;7.08;68.48;99794.24;1673252;83;21371;-55
2021/10/16 03:44:12;;;;;;;22.50;14.10;;;;;;;7.13;68.47;99790.97;1729210;81;21306;-55
2021/10/16 03:46:39;;;;;;;21.80;13.80;;;;;;;7.19;68.45;99795.23;1727683;81;21607;-55
2021/10/16 03:49:06;;;;;;;20.90;15.07;;;;;;;7.23;68.33;99798.20;1728897;81;21065;-56
2021/10/16 03:51:34;;;;;;;20.73;14.27;;;;;;;7.27;68.26;99797.18;1726503;81;21157;-56
2021/10/16 03:54:01;;;;;;;20.17;15.03;;;;;;;7.31;68.14;99802.86;1702001;81;21161;-55
2021/10/16 03:56:28;;;;;;;24.43;15.00;;;;;;;7.34;68.03;99789.80;1724353;81;21117;-56
2021/10/16 03:58:54;;;;;;;21.80;16.00;;;;;;;7.35;67.96;99798.25;1725306;81;21086;-55
2021/10/16 04:01:21;;;;;;;22.00;15.73;;;;;;;7.36;67.89;99795.99;1725065;81;21125;-55
2021/10/16 04:03:47;;;;;;;24.30;14.93;;;;;;;7.36;67.86;99803.56;1725877;81;21286;-56
2021/10/16 04:06:15;;;;;;;28.00;16.07;;;;;;;7.37;67.79;99798.62;1727613;81;21057;-56
2021/10/16 04:08:41;;;;;;;22.10;16.00;;;;;;;7.36;67.79;99800.88;1674514;83;21081;-55
2021/10/16 04:11:08;;;;;;;25.60;16.70;;;;;;;7.35;67.73;99795.58;1724417;80;21127;-55
2021/10/16 04:13:35;;;;;;;20.43;14.53;;;;;;;7.33;67.75;99794.75;1727633;80;21096;-56
2021/10/16 04:16:04;;;;;;;19.57;12.83;;;;;;;7.33;67.79;99797.42;1724101;81;21134;-56
2021/10/16 04:18:34;;;;;;;23.20;14.07;;;;;;;7.33;67.79;99796.96;1707984;81;20990;-56
2021/10/16 04:21:01;;;;;;;20.27;12.77;;;;;;;7.35;67.84;99799.12;1726198;81;21120;-55
2021/10/16 04:23:28;;;;;;;21.87;14.77;;;;;;;7.38;67.90;99800.84;1681638;83;21473;-55
2021/10/16 04:25:56;;;;;;;21.17;14.50;;;;;;;7.41;67.92;99802.05;1728907;81;21124;-55
2021/10/16 04:28:22;;;;;;;23.03;16.60;;;;;;;7.43;67.92;99805.09;1727352;81;22602;-56
2021/10/16 04:30:53;;;;;;;24.60;16.57;;;;;;;7.46;67.93;99804.13;1723609;81;21129;-56
2021/10/16 04:33:19;;;;;;;24.47;15.80;;;;;;;7.48;67.96;99797.80;1730229;81;21472;-55
2021/10/16 04:35:46;;;;;;;24.70;16.53;;;;;;;7.50;67.92;99801.73;1731399;81;21527;-55
2021/10/16 04:38:12;;;;;;;25.37;16.23;;;;;;;7.51;67.95;99800.81;1728012;81;22443;-56
2021/10/16 04:40:39;;;;;;;20.57;15.50;;;;;;;7.52;67.96;99802.56;1676383;83;21737;-56
2021/10/16 04:43:07;;;;;;;25.47;16.20;;;;;;;7.52;68.07;99795.87;1728543;81;21600;-57
2021/10/16 04:45:35;;;;;;;19.30;13.93;;;;;;;7.51;68.23;99797.67;1657788;82;21161;-56
2021/10/16 04:48:01;;;;;;;23.70;14.57;;;;;;;7.52;68.41;99797.20;1733346;81;21057;-56
2021/10/16 04:50:29;;;;;;;17.70;12.93;;;;;;;7.51;68.79;99788.30;1705955;82;21128;-56
2021/10/16 04:52:57;;;;;;;21.17;14.63;;;;;;;7.53;68.96;99790.92;1729211;81;22163;-57
2021/10/16 04:55:25;;;;;;;21.17;13.17;;;;;;;7.55;69.08;99797.11;1727973;82;21384;-57
2021/10/16 04:57:51;;;;;;;19.83;12.80;;;;;;;7.56;69.28;99793.05;1727268;81;21137;-56
2021/10/16 05:00:18;;;;;;;19.07;13.27;;;;;;;7.58;69.49;99796.52;1725754;81;21093;-57
2021/10/16 05:02:45;;;;;;;21.47;14.53;;;;;;;7.61;69.80;99803.58;1664506;83;21098;-56
2021/10/16 05:05:12;;;;;;;19.90;14.17;;;;;;;7.64;70.06;99803.48;1699171;83;21074;-56
2021/10/16 05:07:39;;;;;;;20.50;14.90;;;;;;;7.66;70.31;99799.38;1664845;85;21652;-56
2021/10/16 05:10:06;;;;;;;24.43;15.63;;;;;;;7.67;70.60;99799.80;1677077;83;21548;-56
2021/10/16 05:12:33;;;;;;;19.13;15.57;;;;;;;7.69;70.91;99791.25;1669731;83;21140;-57
2021/10/16 05:14:59;;;;;;;22.93;15.57;;;;;;;7.68;71.04;99790.38;1669553;83;21074;-56
2021/10/16 05:17:26;;;;;;;21.03;15.93;;;;;;;7.69;71.29;99791.25;1672972;83;21099;-55
2021/10/16 05:19:54;;;;;;;18.83;14.17;;;;;;;7.69;71.49;99792.59;1680660;83;21715;-57
2021/10/16 05:22:20;;;;;;;16.17;13.10;;;;;;;7.69;71.61;99788.11;1676163;83;21571;-56
2021/10/16 05:24:47;;;;;;;18.17;14.03;;;;;;;7.70;71.82;99789.86;1697697;83;21647;-56
2021/10/16 05:27:14;;;;;;;15.63;12.60;;;;;;;7.72;72.07;99793.37;1677585;83;21081;-56
2021/10/16 05:29:40;;;;;;;16.03;12.97;;;;;;;7.75;72.24;99785.66;1683689;84;21532;-55
2021/10/16 05:32:07;;;;;;;21.73;13.33;;;;;;;7.78;72.36;99794.94;1696194;83;21532;-56
2021/10/16 05:34:34;;;;;;;20.40;14.73;;;;;;;7.80;72.47;99790.41;1669282;85;20993;-56
2021/10/16 05:37:03;;;;;;;20.97;14.63;;;;;;;7.83;72.51;99785.79;1665832;85;21368;-56
2021/10/16 05:39:30;;;;;;;21.93;15.33;;;;;;;7.86;72.54;99783.47;1674282;85;20998;-55
2021/10/16 05:41:56;;;;;;;21.80;16.60;;;;;;;7.89;72.63;99788.73;1673725;85;21793;-56
2021/10/16 05:44:23;;;;;;;24.33;16.87;;;;;;;7.91;72.81;99790.41;1703707;83;20944;-55
2021/10/16 05:46:50;;;;;;;21.53;15.07;;;;;;;7.93;72.79;99795.25;1679839;83;21031;-56
2021/10/16 05:49:16;;;;;;;17.33;13.43;;;;;;;7.94;72.80;99795.66;1698834;83;20939;-55
2021/10/16 05:51:43;;;;;;;15.37;12.20;;;;;;;7.97;72.85;99790.66;1681681;83;21033;-55
2021/10/16 05:54:09;;;;;;;17.47;12.33;;;;;;;8.01;72.95;99787.38;1683199;83;22201;-55
2021/10/16 05:56:37;;;;;;;20.30;13.83;;;;;;;8.05;72.95;99783.67;1682407;83;21044;-55
2021/10/16 05:59:03;;;;;;;17.63;12.70;;;;;;;8.10;73.03;99791.94;1699267;82;21037;-55
2021/10/16 06:01:31;;;;;;;18.50;12.27;;;;;;;8.14;73.03;99793.59;1702288;83;20976;-54
2021/10/16 06:03:57;;;;;;;19.60;13.80;;;;;;;8.18;72.89;99794.33;1691077;82;21145;-55
2021/10/16 06:06:24;;;;;;;21.97;14.53;;;;;;;8.23;72.79;99795.92;1691534;83;21760;-55
2021/10/16 06:08:50;;;;;;;26.37;16.57;;;;;;;8.27;72.86;99787.28;1694297;83;22522;-56
2021/10/16 06:11:18;;;;;;;21.90;16.97;;;;;;;8.31;72.76;99795.66;1733795;80;21456;-56
2021/10/16 06:13:45;;;;;;;24.07;15.43;;;;;;;8.31;72.70;99788.50;1726073;82;21360;-55
2021/10/16 06:16:11;;;;;;;22.07;16.80;;;;;;;8.34;72.51;99799.55;1721350;82;21038;-55
2021/10/16 06:18:43;;;;;;;21.80;15.73;;;;;;;8.34;72.51;99797.74;1725857;82;22450;-55
2021/10/16 06:21:10;;;;;;;21.70;14.73;;;;;;;8.36;72.32;99799.03;1724118;82;21057;-55
2021/10/16 06:23:37;;;;;;;21.93;15.80;;;;;;;8.37;72.19;99796.77;1704459;82;21054;-54
2021/10/16 06:26:04;;;;;;;24.53;15.37;;;;;;;8.41;72.15;99808.26;1712077;81;21113;-56
2021/10/16 06:28:31;;;;;;;22.43;14.87;;;;;;;8.44;72.07;99797.39;1730285;82;20938;-54
2021/10/16 06:30:57;;;;;;;21.57;15.10;;;;;;;8.48;71.98;99800.38;1726632;80;21045;-55
2021/10/16 06:33:25;;;;;;;22.50;16.20;;;;;;;8.52;71.92;99800.65;1673488;84;21058;-55
2021/10/16 06:35:52;;;;;;;19.53;14.77;;;;;;;8.56;71.74;99795.13;1725681;80;21637;-55
2021/10/16 06:38:21;;;;;;;24.07;16.17;;;;;;;8.59;71.55;99800.84;1727926;80;21126;-55
2021/10/16 06:40:48;;;;;;;23.73;17.07;;;;;;;8.62;71.43;99796.67;1730919;80;21074;-55
2021/10/16 06:43:22;;;;;;;25.52;16.48;;;;;;;8.65;71.29;99797.91;1715700;81;21167;-54
2021/10/16 06:45:50;;;;;;;21.00;16.60;;;;;;;8.67;71.09;99798.27;1664457;82;21609;-55
2021/10/16 06:48:20;;;;;;;24.63;16.17;;;;;;;8.67;71.01;99803.63;1728878;80;21105;-53
2021/10/16 06:51:00;;;;;;;21.17;14.27;;;;;;;8.70;70.96;99802.14;1725184;80;21050;-55
2021/10/16 06:53:26;;;;;;;22.13;15.33;;;;;;;8.73;70.81;99802.50;1729412;80;21066;-54
2021/10/16 06:55:53;;;;;;;17.07;12.93;;;;;;;8.76;70.82;99795.68;1726684;80;21133;-55
2021/10/16 06:58:21;;;;;;;19.87;14.40;;;;;;;8.82;70.74;99799.45;1730652;80;21539;-54
2021/10/16 07:00:48;;;;;;;20.13;15.07;;;;;;;8.87;70.60;99792.53;1729010;80;21028;-55
2021/10/16 07:03:30;;;;;;;23.63;15.83;;;;;;;8.89;70.64;99790.67;1713429;80;21034;-54
2021/10/16 07:05:57;;;;;;;27.07;16.80;;;;;;;8.92;70.52;99798.15;1728425;80;21054;-55
2021/10/16 07:08:29;;;;;;;27.63;18.10;;;;;;;8.96;70.39;99797.53;1729346;80;21196;-55
2021/10/16 07:10:58;;;;;;;29.00;18.33;;;;;;;8.99;70.41;99802.33;1727304;80;21054;-55
2021/10/16 07:16:11;;;;;;;25.30;17.43;;;;;;;9.06;70.29;99780.98;1845886;75;24615;-56
2021/10/16 07:18:38;;;;;;;23.57;15.57;;;;;;;9.03;70.27;99781.58;1807031;77;21096;-55
2021/10/16 07:21:05;;;;;;;20.97;14.57;;;;;;;9.04;70.30;99791.38;1808755;77;21431;-56
2021/10/16 07:23:32;;;;;;;17.60;14.13;;;;;;;9.08;70.30;99787.17;1815486;77;21357;-55
2021/10/16 07:25:59;;;;;;;21.87;14.00;;;;;;;9.11;70.16;99786.16;1813872;77;21064;-55
2021/10/16 07:28:26;;;;;;;24.95;15.05;;;;;;;9.15;70.00;99781.55;1810421;77;21064;-55
2021/10/16 07:30:52;;;;;;;29.20;18.15;;;;;;;9.20;69.78;99783.55;1809581;77;21041;-55
2021/10/16 07:33:18;;;;;;;28.87;18.87;;;;;;;9.25;69.68;99787.81;1793870;77;21138;-56
2021/10/16 07:35:45;;;;;;;30.73;18.93;;;;;;;9.29;69.61;99788.53;1795192;78;21054;-55
2021/10/16 07:38:12;;;;;;;22.93;17.37;;;;;;;9.33;69.47;99791.05;1792580;78;21139;-55
2021/10/16 07:40:39;;;;;;;22.67;16.20;;;;;;;9.36;69.35;99792.23;1793359;78;21092;-55
2021/10/16 07:43:05;;;;;;;23.67;15.88;;;;;;;9.39;69.39;99788.55;1796754;78;21084;-55
2021/10/16 07:45:32;;;;;;;21.70;16.30;;;;;;;9.40;69.39;99791.19;1792566;78;21063;-56
2021/10/16 07:47:59;;;;;;;19.17;15.40;;;;;;;9.43;69.14;99790.19;1793826;78;21037;-55
2021/10/16 07:50:25;;;;;;;20.53;14.67;;;;;;;9.44;69.01;99791.94;1790439;78;21079;-55
2021/10/16 07:52:51;;;;;;;17.62;13.72;;;;;;;9.48;69.01;99790.85;1795026;78;21424;-56
2021/10/16 07:55:17;;;;;;;19.65;14.38;;;;;;;9.50;68.99;99795.70;1793420;78;21131;-55
2021/10/16 07:57:44;;;;;;;18.70;13.95;;;;;;;9.56;69.07;99787.83;1786690;78;21199;-54
2021/10/16 08:00:11;;;;;;;21.93;15.80;;;;;;;9.60;69.14;99787.64;1793706;78;21054;-56
2021/10/16 08:02:39;;;;;;;22.82;15.30;;;;;;;9.65;69.03;99792.34;1793451;78;21510;-55
2021/10/16 08:05:06;;;;;;;21.93;16.65;;;;;;;9.70;68.98;99795.69;1790329;78;21034;-55
2021/10/16 08:07:33;;;;;;;21.12;16.35;;;;;;;9.75;68.99;99796.84;1794560;78;21001;-56
2021/10/16 08:09:59;;;;;;;24.47;18.70;;;;;;;9.78;68.86;99804.78;1795242;78;21106;-55
2021/10/16 08:12:26;;;;;;;26.07;17.40;;;;;;;9.80;68.67;99804.22;1795919;78;21081;-55
2021/10/16 08:14:54;;;;;;;25.30;17.60;;;;;;;9.79;68.52;99793.94;1794027;78;21009;-55
2021/10/16 08:17:21;;;;;;;21.02;15.15;;;;;;;9.80;68.44;99793.47;1800878;78;22143;-55
2021/10/16 08:19:49;;;;;;;19.60;16.20;;;;;;;9.79;68.40;99792.59;1790581;78;21306;-55
2021/10/16 08:22:15;;;;;;;19.98;15.08;;;;;;;9.80;68.39;99786.75;1796498;78;21072;-55
2021/10/16 08:24:43;;;;;;;20.95;15.38;;;;;;;9.83;68.39;99784.81;1797351;78;21049;-55
2021/10/16 08:27:10;;;;;;;18.60;15.23;;;;;;;9.86;68.31;99778.43;1790464;78;21315;-56
2021/10/16 08:29:36;;;;;;;22.73;17.30;;;;;;;9.90;68.31;99780.02;1793332;78;21463;-55
2021/10/16 08:32:04;;;;;;;23.42;16.48;;;;;;;9.93;68.03;99779.89;1797114;78;21859;-55
2021/10/16 08:34:31;;;;;;;20.05;14.93;;;;;;;9.96;67.98;99784.23;1795834;78;22307;-55
2021/10/16 08:36:59;;;;;;;22.52;16.17;;;;;;;9.98;67.78;99785.05;1793385;78;20949;-55
2021/10/16 08:39:26;;;;;;;22.13;17.00;;;;;;;9.97;67.55;99776.11;1794947;78;20952;-56
2021/10/16 08:41:53;;;;;;;24.45;16.48;;;;;;;9.96;67.48;99783.77;1793929;78;20957;-55
2021/10/16 08:44:19;;;;;;;21.68;16.10;;;;;;;9.97;67.62;99777.92;1796881;78;20866;-54
2021/10/16 08:46:45;;;;;;;17.17;14.63;;;;;;;9.97;67.58;99780.61;1794325;78;21082;-56
2021/10/16 08:49:13;;;;;;;19.10;14.28;;;;;;;9.97;67.37;99782.83;1793586;78;20942;-55
2021/10/16 08:51:42;;;;;;;22.13;14.70;;;;;;;10.01;67.34;99776.86;1793825;78;20963;-55
2021/10/16 08:54:08;;;;;;;19.92;12.23;;;;;;;10.06;67.17;99777.03;1797614;78;21016;-54
2021/10/16 08:56:35;;;;;;;21.10;12.58;;;;;;;10.12;67.24;99774.56;1794279;78;21092;-55
2021/10/16 08:59:01;;;;;;;18.57;13.45;;;;;;;10.23;67.15;99767.75;1794118;78;22183;-55
2021/10/16 09:01:28;;;;;;;18.55;13.70;;;;;;;10.32;67.13;99769.61;1792576;78;21038;-56
2021/10/16 09:03:57;;;;;;;16.65;11.38;;;;;;;10.42;66.61;99776.31;1792535;78;21037;-55
2021/10/16 09:06:27;;;;;;;17.10;12.43;;;;;;;10.48;66.07;99774.20;1798348;78;21068;-57
2021/10/16 09:09:07;;;;;;;15.83;12.15;;;;;;;10.54;65.52;99777.09;1797014;78;21048;-55
2021/10/16 09:11:39;;;;;;;13.70;11.33;;;;;;;10.57;65.25;99785.88;1793744;78;21047;-54
2021/10/16 09:14:14;;;;;;;18.48;12.68;;;;;;;10.63;65.08;99782.88;1791856;78;21072;-55
2021/10/16 09:16:50;;;;;;;14.13;10.93;;;;;;;10.70;64.92;99778.56;1790651;78;21076;-55
2021/10/16 09:19:28;;;;;;;14.87;10.98;;;;;;;10.80;64.75;99777.19;1794688;78;21041;-56
2021/10/16 09:22:07;;;;;;;11.30;9.18;;;;;;;10.89;64.55;99782.09;1793895;78;21029;-56
2021/10/16 09:24:39;;;;;;;13.65;9.05;;;;;;;11.01;64.06;99780.15;1792529;78;22241;-55
2021/10/16 09:27:19;;;;;;;11.50;8.50;;;;;;;11.12;63.72;99780.50;1791934;78;21017;-57
2021/10/16 09:29:47;;;;;;;12.30;9.28;;;;;;;11.23;63.01;99774.55;1795664;78;21105;-55
2021/10/16 09:32:16;;;;;;;9.80;8.83;;;;;;;11.32;62.67;99772.27;1793634;77;21064;-55
2021/10/16 09:34:46;;;;;;;13.08;9.43;;;;;;;11.41;62.04;99772.27;1795351;78;21064;-55
2021/10/16 09:37:16;;;;;;;10.98;8.05;;;;;;;11.51;61.66;99771.33;1796986;78;21155;-55
2021/10/16 09:39:51;;;;;;;11.75;10.38;;;;;;;11.63;61.10;99770.70;1794981;77;21088;-55
2021/10/16 09:42:44;;;;;;;10.48;8.00;;;;;;;11.74;60.88;99765.59;1790073;78;21120;-57
2021/10/16 09:45:14;;;;;;;8.18;7.40;;;;;;;11.84;60.44;99769.59;1797420;78;21050;-55
2021/10/16 09:47:54;;;;;;;6.67;6.08;;;;;;;11.96;60.27;99762.20;1797072;78;21093;-56
2021/10/16 09:50:21;;;;;;;5.97;5.47;;;;;;;12.04;59.55;99759.97;1794778;78;21966;-55
2021/10/16 09:52:48;;;;;;;5.58;4.95;;;;;;;12.12;58.50;99760.89;1795386;78;21390;-57
2021/10/16 09:55:14;;;;;;;5.40;4.28;;;;;;;12.15;57.94;99762.56;1795035;78;21023;-55
2021/10/16 09:57:42;;;;;;;7.80;3.60;;;;;;;12.17;57.66;99770.08;1794468;78;20981;-56
2021/10/16 10:00:10;;;;;;;4.35;3.12;;;;;;;12.19;57.21;99761.42;1793764;78;21029;-57
2021/10/16 10:02:39;;;;;;;4.30;3.58;;;;;;;12.19;56.92;99766.82;1793634;78;21062;-56
2021/10/16 10:05:08;;;;;;;4.75;4.35;;;;;;;12.19;56.67;99756.03;1793828;78;21629;-55
2021/10/16 10:07:35;;;;;;;4.70;4.22;;;;;;;12.22;56.67;99768.02;1794481;78;21103;-56
2021/10/16 10:10:03;;;;;;;6.65;5.08;;;;;;;12.20;56.60;99763.17;1793896;78;21048;-57
2021/10/16 10:12:30;;;;;;;6.87;6.15;;;;;;;12.24;56.48;99760.72;1755446;80;21024;-57
2021/10/16 10:14:58;;;;;;;6.35;5.75;;;;;;;12.26;56.49;99752.91;1744875;80;21061;-57
2021/10/16 10:17:31;;;;;;;8.50;6.78;;;;;;;12.30;56.59;99753.15;1740776;80;21054;-57
2021/10/16 10:20:11;;;;;;;10.23;6.28;;;;;;;12.35;56.52;99754.23;1736322;80;21028;-57
2021/10/16 10:22:40;;;;;;;8.90;8.00;;;;;;;12.40;56.49;99744.06;1740590;80;21053;-56
2021/10/16 10:25:25;;;;;;;9.35;7.65;;;;;;;12.46;56.37;99754.03;1744355;80;21092;-57
2021/10/16 10:27:52;;;;;;;;;;;;;;;12.52;56.09;99747.41;1748161;80;21821;-57
2021/10/16 10:30:39;;;;;;;8.20;7.40;;;;;;;12.56;55.93;99735.49;1748230;80;20168;-57
2021/10/16 10:33:21;;;;;;;8.78;7.80;;;;;;;12.55;55.83;99727.00;1741703;80;21096;-57
2021/10/16 10:36:09;;;;;;;9.78;8.83;;;;;;;12.58;55.98;99734.06;1746382;80;20990;-56
2021/10/16 10:38:37;;;;;;;10.03;7.97;;;;;;;12.61;56.32;99718.54;1746464;80;21413;-56
2021/10/16 10:41:27;;;;;;;11.15;9.35;;;;;;;12.67;56.27;99715.98;1744113;80;22443;-56
2021/10/16 10:43:54;;;;;;;12.95;9.70;;;;;;;12.72;56.15;99717.45;1742609;80;22800;-55
2021/10/16 10:46:27;;;;;;;14.70;10.10;;;;;;;12.77;56.13;99720.75;1746658;80;21031;-55
2021/10/16 10:48:53;;;;;;;13.62;11.10;;;;;;;12.80;55.87;99724.64;1749054;80;21075;-56
2021/10/16 10:51:34;;;;;;;12.78;11.43;;;;;;;12.79;55.79;99717.48;1747753;80;21492;-54
2021/10/16 10:54:21;;;;;;;15.28;10.72;;;;;;;12.79;55.96;99717.97;1751357;80;21056;-54
2021/10/16 10:56:55;;;;;;;17.85;11.60;;;;;;;12.81;56.13;99717.41;1746878;80;21537;-55
2021/10/16 10:59:20;;;;;;;13.13;10.70;;;;;;;12.82;56.05;99709.22;1749863;80;21056;-56
2021/10/16 11:02:01;;;;;;;13.32;11.60;;;;;;;12.83;56.16;99711.44;1748470;80;21084;-56
2021/10/16 11:04:36;;;;;;;12.78;10.82;;;;;;;12.87;56.35;99711.16;1748459;80;21739;-55
2021/10/16 11:07:05;;;;;;;14.85;10.60;;;;;;;12.91;56.39;99710.52;1752851;80;21152;-55
2021/10/16 11:09:32;;;;;;;10.18;8.98;;;;;;;12.95;56.43;99706.66;1738784;80;22328;-56
2021/10/16 11:11:58;;;;;;;11.68;9.33;;;;;;;12.99;56.61;99701.95;1732617;80;21100;-56
2021/10/16 11:14:37;;;;;;;11.50;9.73;;;;;;;13.03;56.39;99700.31;1735731;80;21578;-55
2021/10/16 11:17:11;;;;;;;12.63;10.95;;;;;;;13.07;56.28;99698.32;1754044;80;20909;-54
2021/10/16 11:19:53;;;;;;;15.72;10.03;;;;;;;13.09;55.90;99697.28;1735863;80;22147;-56
2021/10/16 11:22:22;;;;;;;14.43;10.03;;;;;;;13.09;55.83;99693.23;1761920;80;20929;-56
2021/10/16 11:24:48;;;;;;;12.65;9.53;;;;;;;13.12;55.78;99686.27;1730839;80;20918;-56
2021/10/16 11:27:22;;;;;;;11.40;9.03;;;;;;;13.16;55.59;99691.05;1737867;80;20910;-56
2021/10/16 11:29:49;;;;;;;9.43;7.53;;;;;;;13.18;55.58;99691.33;1763794;80;20918;-56
2021/10/16 11:32:22;;;;;;;10.82;8.93;;;;;;;13.20;55.21;99693.95;1762924;80;21090;-56
2021/10/16 11:35:05;;;;;;;9.48;8.18;;;;;;;13.22;55.14;99681.22;1760217;80;20981;-56